Aérodrome :
LOGIN :

S'inscrire | Disclaimer

   EN    FR    IT 

 










Légende :    VFR   VFR Marginal   IFR   IFR Intensif   IFR Très Intensif
Visi : 
Plafond : 
>= 8 km
>= 3000ft
5 à 8 km
1000 à 3000 ft
1500m à 5 km
500 à 1000 ft
800 à 1500m
200 à 500 ft
< 800m
< 200 ft
Symboles :   Orages  Brouillard  Fortes neiges  Fortes précipitations  Vent > 20 kt
SIGMETs :   Divers  Orages  Givrage  Turbulence  Onde Orograph.  Cendres Volcan.







- Altitude de l'aérodrome : 124 ft
- Code IATA : AVN
- Voir les cartes d'approche


LFMV - Avignon Caumont

DERNIER METAR :
  • 270600Z AUTO VRB02KT 9999 OVC022 11/06 Q1013 NOSIG

METARs EXPIRÉS :
  • 270530Z AUTO VRB02KT 9999 OVC023 11/07 Q1013 NOSIG
  • 270500Z AUTO VRB01KT 9999 OVC022 09/07 Q1012 NOSIG
  • 270430Z AUTO 00000KT 9999 BKN019 BKN027 08/06 Q1012 NOSIG
  • 270400Z AUTO VRB01KT 9999 FEW025 07/03 Q1012 NOSIG
  • 270330Z AUTO VRB02KT CAVOK 08/05 Q1012 NOSIG

TAF AMD TAF LFMV
Valide du 27 à 06h jusqu'au 28 à 03h UTC


270610Z 2706/2803 VRB03KT 9999 FEW013 OVC023
BECMG 2708/2710 SCT035
BECMG 2709/2711 22010KT
BECMG 2712/2714 CAVOK
BECMG 2719/2721 VRB03KT
ATIS : +33 4 90 84 32 84
Pas de NOTAMs connus pour ce terrain.



MET'MAP, la Météo Aéronautique d'un coup d'oeil ! - Copyright ORBIFLY Décembre 2007 - Disclaimer

ORBIFLY MET'MAP TEAM :

Programmation & Développement : Alexandra Zaïnal
Conception & Développement : Baudouin d'Aumeries
Co-Programmation & Développement : Marc-Olivier Méhu
Soutien technique & logistique : Manuel Goepfert

Contact : metmap@orbifly.com




SOURCES & CREDITS :

   NOAA